This is the latest recevied weather packets stored in our database for station/object DL2GPS-3. If no packets are shown the sender has not sent any weather packets the latest 10 day(s).
| Time | Temp. | Humidity | Pressure | Rain* | Wind** | Luminosity | Snow |
|---|---|---|---|---|---|---|---|
| 1777622024 | 13.89° C | 30% | 1026.1 hPa | - | - | - | - |
| 1777621418 | 13.33° C | 30% | 1026.1 hPa | - | - | - | - |
| 1777620813 | 13.89° C | 30% | 1025.9 hPa | - | - | - | - |
| 1777620209 | 13.33° C | 30% | 1025.9 hPa | - | - | - | - |
| 1777619604 | 13.89° C | 29% | 1025.8 hPa | - | - | - | - |
| 1777619000 | 13.89° C | 29% | 1025.8 hPa | - | - | - | - |
| 1777618395 | 13.33° C | 29% | 1025.6 hPa | - | - | - | - |
| 1777617790 | 13.89° C | 28% | 1025.6 hPa | - | - | - | - |
| 1777617186 | 13.89° C | 26% | 1025.6 hPa | - | - | - | - |
| 1777616581 | 17.78° C | 22% | 1025.5 hPa | - | - | - | - |
| 1777615976 | 21.11° C | 18% | 1025.5 hPa | - | - | - | - |
| 1777615371 | 24.44° C | 16% | 1025.4 hPa | - | - | - | - |
| 1777614766 | 23.33° C | 17% | 1025.4 hPa | - | - | - | - |
| 1777614161 | 22.22° C | 16% | 1025.3 hPa | - | - | - | - |
| 1777613556 | 24.44° C | 15% | 1025.3 hPa | - | - | - | - |
| 1777612952 | 23.89° C | 15% | 1025.4 hPa | - | - | - | - |
| 1777612346 | 23.33° C | 15% | 1025.3 hPa | - | - | - | - |
| 1777611741 | 21.11° C | 16% | 1025.1 hPa | - | - | - | - |
| 1777611136 | 20.56° C | 17% | 1025.1 hPa | - | - | - | - |
| 1777610531 | 18.89° C | 18% | 1025.2 hPa | - | - | - | - |
| 1777609926 | 16.11° C | 21% | 1025.1 hPa | - | - | - | - |
| 1777609321 | 10.56° C | 29% | 1025.2 hPa | - | - | - | - |
| 1777608716 | 5° C | 35% | 1025.3 hPa | - | - | - | - |
| 1777608112 | 3.89° C | 38% | 1025.3 hPa | - | - | - | - |
| 1777607507 | 3.89° C | 38% | 1025.4 hPa | - | - | - | - |
* Rain since midnight (hover to see other rain measurements)
** Current wind speed in m/s (hover to see current wind gust speed)